sensor_id;sensor_type;location;lat;lon;timestamp;pressure;altitude;pressure_sealevel;temperature;humidity
33496;BME280;19836;55.812;37.560;2022-07-05T00:00:06;99438.06;;;23.35;52.71
33496;BME280;19836;55.812;37.560;2022-07-05T00:02:38;99435.56;;;23.32;52.66
33496;BME280;19836;55.812;37.560;2022-07-05T00:05:04;99432.84;;;23.32;52.71
33496;BME280;19836;55.812;37.560;2022-07-05T00:07:29;99438.31;;;23.32;52.69
33496;BME280;19836;55.812;37.560;2022-07-05T00:09:55;99439.44;;;23.30;52.83
33496;BME280;19836;55.812;37.560;2022-07-05T00:12:23;99443.31;;;23.27;52.93
33496;BME280;19836;55.812;37.560;2022-07-05T00:14:50;99456.50;;;23.22;52.85
33496;BME280;19836;55.812;37.560;2022-07-05T00:17:16;99445.81;;;23.19;52.98
33496;BME280;19836;55.812;37.560;2022-07-05T00:19:42;99440.59;;;23.16;53.05
33496;BME280;19836;55.812;37.560;2022-07-05T00:22:08;99442.97;;;23.21;53.21
33496;BME280;19836;55.812;37.560;2022-07-05T00:24:33;99434.88;;;23.19;53.22
33496;BME280;19836;55.812;37.560;2022-07-05T00:26:59;99447.78;;;23.17;53.28
33496;BME280;19836;55.812;37.560;2022-07-05T00:29:24;99442.56;;;23.14;53.20
33496;BME280;19836;55.812;37.560;2022-07-05T00:31:51;99450.06;;;23.12;53.22
33496;BME280;19836;55.812;37.560;2022-07-05T00:34:16;99445.72;;;23.10;53.47
33496;BME280;19836;55.812;37.560;2022-07-05T00:36:42;99447.56;;;23.09;53.41
33496;BME280;19836;55.812;37.560;2022-07-05T00:39:08;99448.88;;;23.05;53.48
33496;BME280;19836;55.812;37.560;2022-07-05T00:41:34;99444.53;;;23.03;53.38
33496;BME280;19836;55.812;37.560;2022-07-05T00:44:01;99447.13;;;23.04;53.64
33496;BME280;19836;55.812;37.560;2022-07-05T00:46:27;99446.38;;;23.02;53.47
33496;BME280;19836;55.812;37.560;2022-07-05T00:48:54;99448.25;;;23.02;53.60
33496;BME280;19836;55.812;37.560;2022-07-05T00:51:20;99449.22;;;23.01;53.73
33496;BME280;19836;55.812;37.560;2022-07-05T00:53:46;99445.66;;;23.00;53.74
33496;BME280;19836;55.812;37.560;2022-07-05T00:56:30;99451.13;;;23.00;53.75
33496;BME280;19836;55.812;37.560;2022-07-05T00:58:56;99455.09;;;22.96;53.69
33496;BME280;19836;55.812;37.560;2022-07-05T01:01:22;99463.56;;;22.93;53.96
33496;BME280;19836;55.812;37.560;2022-07-05T01:03:47;99454.63;;;22.91;53.83
33496;BME280;19836;55.812;37.560;2022-07-05T01:06:13;99466.69;;;22.89;53.96
33496;BME280;19836;55.812;37.560;2022-07-05T01:08:40;99450.41;;;22.87;53.97
33496;BME280;19836;55.812;37.560;2022-07-05T01:11:06;99465.09;;;22.86;54.02
33496;BME280;19836;55.812;37.560;2022-07-05T01:13:33;99459.88;;;22.83;53.93
33496;BME280;19836;55.812;37.560;2022-07-05T01:15:59;99455.41;;;22.82;53.91
33496;BME280;19836;55.812;37.560;2022-07-05T01:18:25;99458.13;;;22.82;54.02
33496;BME280;19836;55.812;37.560;2022-07-05T01:20:52;99465.59;;;22.80;54.11
33496;BME280;19836;55.812;37.560;2022-07-05T01:23:18;99473.03;;;22.78;54.17
33496;BME280;19836;55.812;37.560;2022-07-05T01:25:44;99470.31;;;22.78;54.21
33496;BME280;19836;55.812;37.560;2022-07-05T01:28:10;99470.31;;;22.78;54.35
33496;BME280;19836;55.812;37.560;2022-07-05T01:30:35;99467.47;;;22.80;54.24
33496;BME280;19836;55.812;37.560;2022-07-05T01:33:02;99462.13;;;22.78;54.27
33496;BME280;19836;55.812;37.560;2022-07-05T01:35:27;99469.59;;;22.76;54.38
33496;BME280;19836;55.812;37.560;2022-07-05T01:37:53;99462.50;;;22.74;54.31
33496;BME280;19836;55.812;37.560;2022-07-05T01:40:19;99464.72;;;22.80;54.36
33496;BME280;19836;55.812;37.560;2022-07-05T01:42:46;99457.00;;;22.85;54.50
33496;BME280;19836;55.812;37.560;2022-07-05T01:45:11;99459.88;;;22.83;54.46
33496;BME280;19836;55.812;37.560;2022-07-05T01:47:43;99463.34;;;22.85;54.60
33496;BME280;19836;55.812;37.560;2022-07-05T01:50:15;99454.75;;;22.90;54.42
33496;BME280;19836;55.812;37.560;2022-07-05T01:52:44;99448.63;;;22.97;54.58
33496;BME280;19836;55.812;37.560;2022-07-05T01:55:11;99446.66;;;22.99;54.54
33496;BME280;19836;55.812;37.560;2022-07-05T01:57:38;99445.66;;;23.00;54.61
33496;BME280;19836;55.812;37.560;2022-07-05T02:00:04;99443.53;;;23.04;54.56
33496;BME280;19836;55.812;37.560;2022-07-05T02:02:40;99444.47;;;23.14;54.63
33496;BME280;19836;55.812;37.560;2022-07-05T02:05:06;99441.59;;;23.15;54.33
33496;BME280;19836;55.812;37.560;2022-07-05T02:07:32;99442.31;;;23.17;54.26
33496;BME280;19836;55.812;37.560;2022-07-05T02:09:58;99446.69;;;23.20;54.54
33496;BME280;19836;55.812;37.560;2022-07-05T02:12:24;99448.31;;;23.22;54.12
33496;BME280;19836;55.812;37.560;2022-07-05T02:14:50;99447.03;;;23.26;54.04
33496;BME280;19836;55.812;37.560;2022-07-05T02:17:19;99450.63;;;23.27;54.08
33496;BME280;19836;55.812;37.560;2022-07-05T02:19:49;99457.56;;;23.31;54.09
33496;BME280;19836;55.812;37.560;2022-07-05T02:22:15;99449.50;;;23.29;53.99
33496;BME280;19836;55.812;37.560;2022-07-05T02:24:44;99453.69;;;23.33;54.11
33496;BME280;19836;55.812;37.560;2022-07-05T02:27:18;99457.31;;;23.34;54.10
33496;BME280;19836;55.812;37.560;2022-07-05T02:29:44;99446.25;;;23.35;54.02
33496;BME280;19836;55.812;37.560;2022-07-05T02:32:11;99451.44;;;23.38;54.01
33496;BME280;19836;55.812;37.560;2022-07-05T02:34:36;99448.31;;;23.43;54.00
33496;BME280;19836;55.812;37.560;2022-07-05T02:37:02;99442.91;;;23.52;54.00
33496;BME280;19836;55.812;37.560;2022-07-05T02:39:28;99446.31;;;23.65;53.93
33496;BME280;19836;55.812;37.560;2022-07-05T02:41:57;99452.25;;;23.70;53.90
33496;BME280;19836;55.812;37.560;2022-07-05T02:44:22;99446.78;;;23.70;53.80
33496;BME280;19836;55.812;37.560;2022-07-05T02:46:50;99445.75;;;23.71;53.83
33496;BME280;19836;55.812;37.560;2022-07-05T02:49:16;99450.34;;;23.71;53.74
33496;BME280;19836;55.812;37.560;2022-07-05T02:51:42;99448.22;;;23.74;53.80
33496;BME280;19836;55.812;37.560;2022-07-05T02:54:10;99456.88;;;23.79;53.72
33496;BME280;19836;55.812;37.560;2022-07-05T02:56:37;99447.13;;;23.86;53.73
33496;BME280;19836;55.812;37.560;2022-07-05T02:59:05;99453.34;;;23.88;53.80
33496;BME280;19836;55.812;37.560;2022-07-05T03:01:34;99454.13;;;23.90;53.74
33496;BME280;19836;55.812;37.560;2022-07-05T03:04:04;99458.16;;;23.96;53.64
33496;BME280;19836;55.812;37.560;2022-07-05T03:06:32;99458.34;;;24.04;53.48
33496;BME280;19836;55.812;37.560;2022-07-05T03:08:58;99454.78;;;24.13;53.33
33496;BME280;19836;55.812;37.560;2022-07-05T03:11:24;99455.53;;;24.24;53.06
33496;BME280;19836;55.812;37.560;2022-07-05T03:13:50;99458.59;;;24.31;52.85
33496;BME280;19836;55.812;37.560;2022-07-05T03:16:17;99459.16;;;24.34;52.76
33496;BME280;19836;55.812;37.560;2022-07-05T03:18:43;99462.38;;;24.39;52.65
33496;BME280;19836;55.812;37.560;2022-07-05T03:21:09;99466.28;;;24.46;52.64
33496;BME280;19836;55.812;37.560;2022-07-05T03:23:36;99461.25;;;24.51;52.41
33496;BME280;19836;55.812;37.560;2022-07-05T03:26:01;99469.53;;;24.61;52.10
33496;BME280;19836;55.812;37.560;2022-07-05T03:28:29;99476.19;;;24.68;51.87
33496;BME280;19836;55.812;37.560;2022-07-05T03:30:57;99474.47;;;24.76;51.78
33496;BME280;19836;55.812;37.560;2022-07-05T03:33:24;99484.88;;;24.82;51.66
33496;BME280;19836;55.812;37.560;2022-07-05T03:35:50;99476.38;;;24.85;51.47
33496;BME280;19836;55.812;37.560;2022-07-05T03:38:18;99467.72;;;24.90;51.23
33496;BME280;19836;55.812;37.560;2022-07-05T03:40:44;99467.13;;;24.96;51.28
33496;BME280;19836;55.812;37.560;2022-07-05T03:43:10;99473.81;;;25.03;50.93
33496;BME280;19836;55.812;37.560;2022-07-05T03:45:37;99481.00;;;25.13;50.99
33496;BME280;19836;55.812;37.560;2022-07-05T03:48:04;99482.31;;;25.19;50.82
33496;BME280;19836;55.812;37.560;2022-07-05T03:50:31;99485.81;;;25.30;50.21
33496;BME280;19836;55.812;37.560;2022-07-05T03:52:57;99475.72;;;25.40;49.74
33496;BME280;19836;55.812;37.560;2022-07-05T03:55:23;99488.09;;;25.44;49.63
33496;BME280;19836;55.812;37.560;2022-07-05T03:57:50;99491.88;;;25.53;49.43
33496;BME280;19836;55.812;37.560;2022-07-05T04:00:17;99493.16;;;25.58;49.23
33496;BME280;19836;55.812;37.560;2022-07-05T04:02:51;99480.88;;;25.62;49.27
33496;BME280;19836;55.812;37.560;2022-07-05T04:05:17;99486.78;;;25.67;49.09
33496;BME280;19836;55.812;37.560;2022-07-05T04:07:47;99489.09;;;25.72;48.68
33496;BME280;19836;55.812;37.560;2022-07-05T04:10:14;99493.00;;;25.79;48.51
33496;BME280;19836;55.812;37.560;2022-07-05T04:12:41;99493.41;;;25.84;48.24
33496;BME280;19836;55.812;37.560;2022-07-05T04:15:07;99490.22;;;25.88;48.14
33496;BME280;19836;55.812;37.560;2022-07-05T04:17:33;99496.56;;;25.98;47.71
33496;BME280;19836;55.812;37.560;2022-07-05T04:19:59;99497.00;;;26.03;47.47
33496;BME280;19836;55.812;37.560;2022-07-05T04:22:25;99503.78;;;26.09;47.27
33496;BME280;19836;55.812;37.560;2022-07-05T04:24:51;99498.53;;;26.15;47.05
33496;BME280;19836;55.812;37.560;2022-07-05T04:27:36;99493.47;;;26.20;46.92
33496;BME280;19836;55.812;37.560;2022-07-05T04:30:02;99491.84;;;26.27;46.59
33496;BME280;19836;55.812;37.560;2022-07-05T04:32:30;99497.75;;;26.32;46.08
33496;BME280;19836;55.812;37.560;2022-07-05T04:34:56;99491.66;;;26.38;45.94
33496;BME280;19836;55.812;37.560;2022-07-05T04:37:23;99491.03;;;26.44;45.91
33496;BME280;19836;55.812;37.560;2022-07-05T04:39:48;99494.22;;;26.49;45.80
33496;BME280;19836;55.812;37.560;2022-07-05T04:42:14;99496.38;;;26.55;45.68
33496;BME280;19836;55.812;37.560;2022-07-05T04:44:40;99488.38;;;26.62;45.53
33496;BME280;19836;55.812;37.560;2022-07-05T04:47:07;99489.66;;;26.67;45.33
33496;BME280;19836;55.812;37.560;2022-07-05T04:49:33;99496.28;;;26.74;45.19
33496;BME280;19836;55.812;37.560;2022-07-05T04:51:58;99490.16;;;26.80;45.13
33496;BME280;19836;55.812;37.560;2022-07-05T04:54:27;99494.19;;;26.86;45.07
33496;BME280;19836;55.812;37.560;2022-07-05T04:56:53;99496.31;;;26.92;44.56
33496;BME280;19836;55.812;37.560;2022-07-05T04:59:19;99492.22;;;26.96;44.50
33496;BME280;19836;55.812;37.560;2022-07-05T05:01:44;99485.25;;;27.01;44.39
33496;BME280;19836;55.812;37.560;2022-07-05T05:04:10;99493.28;;;27.12;44.36
33496;BME280;19836;55.812;37.560;2022-07-05T05:06:36;99498.19;;;27.18;44.23
33496;BME280;19836;55.812;37.560;2022-07-05T05:09:01;99496.53;;;27.25;44.19
33496;BME280;19836;55.812;37.560;2022-07-05T05:11:27;99477.66;;;27.30;43.97
33496;BME280;19836;55.812;37.560;2022-07-05T05:13:53;99488.06;;;27.36;43.73
33496;BME280;19836;55.812;37.560;2022-07-05T05:16:19;99481.03;;;27.42;43.67
33496;BME280;19836;55.812;37.560;2022-07-05T05:18:44;99480.41;;;27.48;43.51
33496;BME280;19836;55.812;37.560;2022-07-05T05:21:10;99485.28;;;27.54;43.26
33496;BME280;19836;55.812;37.560;2022-07-05T05:23:36;99482.75;;;27.60;42.66
33496;BME280;19836;55.812;37.560;2022-07-05T05:26:01;99474.72;;;27.67;42.46
33496;BME280;19836;55.812;37.560;2022-07-05T05:28:27;99487.69;;;27.74;42.32
33496;BME280;19836;55.812;37.560;2022-07-05T05:30:53;99486.22;;;27.80;42.06
33496;BME280;19836;55.812;37.560;2022-07-05T05:33:18;99492.50;;;27.90;41.75
33496;BME280;19836;55.812;37.560;2022-07-05T05:35:44;99490.66;;;27.98;41.27
33496;BME280;19836;55.812;37.560;2022-07-05T05:38:10;99492.28;;;28.09;41.38
33496;BME280;19836;55.812;37.560;2022-07-05T05:40:35;99489.03;;;28.13;41.30
33496;BME280;19836;55.812;37.560;2022-07-05T05:43:06;99486.31;;;28.21;40.95
33496;BME280;19836;55.812;37.560;2022-07-05T05:45:32;99481.88;;;28.28;41.08
33496;BME280;19836;55.812;37.560;2022-07-05T05:47:58;99477.94;;;28.31;40.99
33496;BME280;19836;55.812;37.560;2022-07-05T05:50:27;99485.25;;;28.40;41.03
33496;BME280;19836;55.812;37.560;2022-07-05T05:52:53;99478.72;;;28.49;41.06
33496;BME280;19836;55.812;37.560;2022-07-05T05:55:19;99476.19;;;28.55;41.12
33496;BME280;19836;55.812;37.560;2022-07-05T05:57:45;99483.63;;;28.63;40.69
33496;BME280;19836;55.812;37.560;2022-07-05T06:00:11;99474.69;;;28.69;40.38
33496;BME280;19836;55.812;37.560;2022-07-05T06:02:40;99474.03;;;28.75;40.29
33496;BME280;19836;55.812;37.560;2022-07-05T06:05:06;99479.41;;;28.84;40.52
33496;BME280;19836;55.812;37.560;2022-07-05T06:07:42;99476.31;;;28.95;40.27
33496;BME280;19836;55.812;37.560;2022-07-05T06:10:08;99472.91;;;29.01;39.49
33496;BME280;19836;55.812;37.560;2022-07-05T06:12:34;99475.34;;;29.04;39.00
33496;BME280;19836;55.812;37.560;2022-07-05T06:14:59;99475.34;;;29.04;38.72
33496;BME280;19836;55.812;37.560;2022-07-05T06:17:25;99481.41;;;29.08;38.63
33496;BME280;19836;55.812;37.560;2022-07-05T06:19:51;99472.78;;;29.11;38.31
33496;BME280;19836;55.812;37.560;2022-07-05T06:22:16;99473.66;;;29.19;38.41
33496;BME280;19836;55.812;37.560;2022-07-05T06:24:42;99469.88;;;29.28;38.23
33496;BME280;19836;55.812;37.560;2022-07-05T06:27:07;99470.06;;;29.35;38.42
33496;BME280;19836;55.812;37.560;2022-07-05T06:29:33;99476.09;;;29.46;38.26
33496;BME280;19836;55.812;37.560;2022-07-05T06:31:59;99465.75;;;29.48;37.57
33496;BME280;19836;55.812;37.560;2022-07-05T06:34:25;99468.53;;;29.48;37.68
33496;BME280;19836;55.812;37.560;2022-07-05T06:36:51;99468.88;;;29.53;37.54
33496;BME280;19836;55.812;37.560;2022-07-05T06:39:17;99463.03;;;29.64;37.37
33496;BME280;19836;55.812;37.560;2022-07-05T06:41:42;99462.00;;;29.73;37.57
33496;BME280;19836;55.812;37.560;2022-07-05T06:44:08;99468.88;;;29.85;37.64
33496;BME280;19836;55.812;37.560;2022-07-05T06:46:33;99464.41;;;29.92;37.49
33496;BME280;19836;55.812;37.560;2022-07-05T06:48:59;99461.44;;;30.02;37.56
33496;BME280;19836;55.812;37.560;2022-07-05T06:51:25;99464.91;;;30.12;37.46
33496;BME280;19836;55.812;37.560;2022-07-05T06:53:50;99461.06;;;30.21;37.58
33496;BME280;19836;55.812;37.560;2022-07-05T06:56:16;99454.28;;;30.31;37.51
33496;BME280;19836;55.812;37.560;2022-07-05T06:58:41;99452.91;;;30.35;37.45
33496;BME280;19836;55.812;37.560;2022-07-05T07:01:07;99456.38;;;30.37;37.11
33496;BME280;19836;55.812;37.560;2022-07-05T07:03:33;99459.47;;;30.42;36.87
33496;BME280;19836;55.812;37.560;2022-07-05T07:05:58;99449.41;;;30.49;36.79
33496;BME280;19836;55.812;37.560;2022-07-05T07:08:24;99450.53;;;30.63;36.77
33496;BME280;19836;55.812;37.560;2022-07-05T07:11:08;99444.13;;;30.70;35.92
33496;BME280;19836;55.812;37.560;2022-07-05T07:13:34;99442.00;;;30.80;36.22
33496;BME280;19836;55.812;37.560;2022-07-05T07:16:00;99442.81;;;30.89;36.11
33496;BME280;19836;55.812;37.560;2022-07-05T07:18:25;99444.59;;;30.82;34.91
33496;BME280;19836;55.812;37.560;2022-07-05T07:20:51;99444.47;;;30.75;35.12
33496;BME280;19836;55.812;37.560;2022-07-05T07:23:17;99443.56;;;30.83;35.36
33496;BME280;19836;55.812;37.560;2022-07-05T07:25:43;99440.19;;;30.95;35.42
33496;BME280;19836;55.812;37.560;2022-07-05T07:28:08;99438.72;;;31.07;35.28
33496;BME280;19836;55.812;37.560;2022-07-05T07:30:34;99440.41;;;31.16;35.32
33496;BME280;19836;55.812;37.560;2022-07-05T07:33:00;99436.56;;;31.26;35.05
33496;BME280;19836;55.812;37.560;2022-07-05T07:35:25;99443.06;;;31.33;35.26
33496;BME280;19836;55.812;37.560;2022-07-05T07:37:51;99435.59;;;31.41;35.15
33496;BME280;19836;55.812;37.560;2022-07-05T07:40:17;99429.78;;;31.51;35.06
33496;BME280;19836;55.812;37.560;2022-07-05T07:42:43;99438.41;;;31.56;35.05
33496;BME280;19836;55.812;37.560;2022-07-05T07:45:09;99436.50;;;31.56;34.85
33496;BME280;19836;55.812;37.560;2022-07-05T07:47:35;99435.94;;;31.61;34.75
33496;BME280;19836;55.812;37.560;2022-07-05T07:50:01;99430.13;;;31.70;34.36
33496;BME280;19836;55.812;37.560;2022-07-05T07:52:28;99441.09;;;31.86;34.26
33496;BME280;19836;55.812;37.560;2022-07-05T07:54:55;99443.13;;;32.07;34.02
33496;BME280;19836;55.812;37.560;2022-07-05T07:57:21;99437.31;;;32.16;33.71
33496;BME280;19836;55.812;37.560;2022-07-05T07:59:47;99436.75;;;32.06;33.77
33496;BME280;19836;55.812;37.560;2022-07-05T08:02:13;99449.91;;;31.90;34.07
33496;BME280;19836;55.812;37.560;2022-07-05T08:04:38;99443.47;;;31.75;34.36
33496;BME280;19836;55.812;37.560;2022-07-05T08:07:04;99441.13;;;31.64;34.80
33496;BME280;19836;55.812;37.560;2022-07-05T08:09:30;99442.88;;;31.57;34.41
33496;BME280;19836;55.812;37.560;2022-07-05T08:11:56;99441.53;;;31.52;34.80
33496;BME280;19836;55.812;37.560;2022-07-05T08:14:22;99436.28;;;31.58;34.73
33496;BME280;19836;55.812;37.560;2022-07-05T08:16:47;99436.41;;;31.64;34.87
33496;BME280;19836;55.812;37.560;2022-07-05T08:19:13;99434.13;;;31.67;34.63
33496;BME280;19836;55.812;37.560;2022-07-05T08:21:58;99437.28;;;31.87;34.53
33496;BME280;19836;55.812;37.560;2022-07-05T08:24:23;99435.56;;;32.15;34.08
33496;BME280;19836;55.812;37.560;2022-07-05T08:26:49;99430.53;;;32.48;33.66
33496;BME280;19836;55.812;37.560;2022-07-05T08:29:15;99436.84;;;32.71;33.08
33496;BME280;19836;55.812;37.560;2022-07-05T08:31:48;99428.03;;;32.82;32.94
33496;BME280;19836;55.812;37.560;2022-07-05T08:34:15;99432.16;;;32.86;32.85
33496;BME280;19836;55.812;37.560;2022-07-05T08:36:41;99423.13;;;32.98;32.77
33496;BME280;19836;55.812;37.560;2022-07-05T08:39:07;99421.25;;;33.20;32.77
33496;BME280;19836;55.812;37.560;2022-07-05T08:41:37;99425.13;;;33.25;32.64
33496;BME280;19836;55.812;37.560;2022-07-05T08:44:03;99429.81;;;33.04;32.95
33496;BME280;19836;55.812;37.560;2022-07-05T08:46:33;99421.59;;;32.96;32.90
33496;BME280;19836;55.812;37.560;2022-07-05T08:48:59;99419.41;;;32.77;33.08
33496;BME280;19836;55.812;37.560;2022-07-05T08:51:27;99427.31;;;32.59;32.92
33496;BME280;19836;55.812;37.560;2022-07-05T08:53:53;99417.44;;;32.42;33.05
33496;BME280;19836;55.812;37.560;2022-07-05T08:56:20;99419.00;;;32.30;33.35
33496;BME280;19836;55.812;37.560;2022-07-05T08:58:46;99415.59;;;32.20;33.35
33496;BME280;19836;55.812;37.560;2022-07-05T09:01:12;99419.53;;;32.11;33.27
33496;BME280;19836;55.812;37.560;2022-07-05T09:03:39;99419.22;;;32.06;33.22
33496;BME280;19836;55.812;37.560;2022-07-05T09:06:08;99409.56;;;32.02;33.43
33496;BME280;19836;55.812;37.560;2022-07-05T09:08:35;99407.19;;;31.99;33.51
33496;BME280;19836;55.812;37.560;2022-07-05T09:11:04;99416.16;;;32.01;33.36
33496;BME280;19836;55.812;37.560;2022-07-05T09:13:34;99406.03;;;32.08;33.57
33496;BME280;19836;55.812;37.560;2022-07-05T09:16:00;99405.28;;;32.14;33.38
33496;BME280;19836;55.812;37.560;2022-07-05T09:18:38;99409.19;;;32.19;33.66
33496;BME280;19836;55.812;37.560;2022-07-05T09:21:23;99403.88;;;32.32;33.49
33496;BME280;19836;55.812;37.560;2022-07-05T09:23:58;99401.00;;;32.55;33.09
33496;BME280;19836;55.812;37.560;2022-07-05T09:26:34;99397.75;;;32.51;33.07
33496;BME280;19836;55.812;37.560;2022-07-05T09:29:00;99401.25;;;32.45;32.93
33496;BME280;19836;55.812;37.560;2022-07-05T09:31:27;99395.94;;;32.44;33.00
33496;BME280;19836;55.812;37.560;2022-07-05T09:33:53;99395.09;;;33.14;32.43
33496;BME280;19836;55.812;37.560;2022-07-05T09:36:18;99402.59;;;34.32;31.38
33496;BME280;19836;55.812;37.560;2022-07-05T09:38:49;99403.56;;;34.99;30.25
33496;BME280;19836;55.812;37.560;2022-07-05T09:41:14;99400.94;;;34.78;30.38
33496;BME280;19836;55.812;37.560;2022-07-05T09:43:42;99400.56;;;34.87;30.13
33496;BME280;19836;55.812;37.560;2022-07-05T09:46:09;99392.78;;;35.56;29.37
33496;BME280;19836;55.812;37.560;2022-07-05T09:48:34;99390.44;;;36.05;28.80
33496;BME280;19836;55.812;37.560;2022-07-05T09:51:10;99399.81;;;37.44;27.31
33496;BME280;19836;55.812;37.560;2022-07-05T09:56:11;99391.06;;;37.65;27.16
33496;BME280;19836;55.812;37.560;2022-07-05T09:58:38;99390.97;;;36.52;28.16
33496;BME280;19836;55.812;37.560;2022-07-05T10:01:22;99393.22;;;35.66;28.94
33496;BME280;19836;55.812;37.560;2022-07-05T10:04:07;99404.84;;;34.96;30.06
33496;BME280;19836;55.812;37.560;2022-07-05T10:06:33;99410.81;;;34.46;30.38
33496;BME280;19836;55.812;37.560;2022-07-05T10:08:59;99416.91;;;34.01;30.87
33496;BME280;19836;55.812;37.560;2022-07-05T10:11:25;99407.09;;;33.57;31.38
33496;BME280;19836;55.812;37.560;2022-07-05T10:13:52;99398.38;;;33.39;31.83
33496;BME280;19836;55.812;37.560;2022-07-05T10:16:19;99394.28;;;33.35;31.78
33496;BME280;19836;55.812;37.560;2022-07-05T10:18:45;99395.81;;;33.23;32.12
33496;BME280;19836;55.812;37.560;2022-07-05T10:21:15;99396.00;;;33.00;32.44
33496;BME280;19836;55.812;37.560;2022-07-05T10:23:44;99389.38;;;32.80;32.74
33496;BME280;19836;55.812;37.560;2022-07-05T10:26:11;99390.31;;;32.73;33.09
33496;BME280;19836;55.812;37.560;2022-07-05T10:28:37;99393.31;;;32.71;33.19
33496;BME280;19836;55.812;37.560;2022-07-05T10:31:03;99401.81;;;32.55;33.49
33496;BME280;19836;55.812;37.560;2022-07-05T10:33:29;99408.94;;;32.29;33.95
33496;BME280;19836;55.812;37.560;2022-07-05T10:35:55;99412.34;;;32.02;34.32
33496;BME280;19836;55.812;37.560;2022-07-05T10:38:21;99403.72;;;31.97;34.56
33496;BME280;19836;55.812;37.560;2022-07-05T10:40:49;99403.25;;;31.79;34.78
33496;BME280;19836;55.812;37.560;2022-07-05T10:43:15;99406.03;;;31.56;35.32
33496;BME280;19836;55.812;37.560;2022-07-05T10:45:48;99417.34;;;31.47;35.62
33496;BME280;19836;55.812;37.560;2022-07-05T10:48:29;99420.97;;;32.21;35.21
33496;BME280;19836;55.812;37.560;2022-07-05T10:50:59;99413.00;;;34.51;33.17
33496;BME280;19836;55.812;37.560;2022-07-05T10:58:20;99395.75;;;37.40;29.28
33496;BME280;19836;55.812;37.560;2022-07-05T11:00:46;99384.22;;;35.96;30.69
33496;BME280;19836;55.812;37.560;2022-07-05T11:05:57;99396.56;;;36.52;30.67
33496;BME280;19836;55.812;37.560;2022-07-05T11:08:23;99391.38;;;37.57;29.07
33496;BME280;19836;55.812;37.560;2022-07-05T11:13:36;99395.34;;;34.78;31.88
33496;BME280;19836;55.812;37.560;2022-07-05T11:18:47;99388.38;;;32.88;34.23
33496;BME280;19836;55.812;37.560;2022-07-05T11:21:16;99387.97;;;32.41;34.92
33496;BME280;19836;55.812;37.560;2022-07-05T11:23:42;99383.22;;;32.35;35.26
33496;BME280;19836;55.812;37.560;2022-07-05T11:26:08;99383.69;;;32.38;35.20
33496;BME280;19836;55.812;37.560;2022-07-05T11:28:43;99387.47;;;32.23;35.36
33496;BME280;19836;55.812;37.560;2022-07-05T11:31:09;99394.94;;;31.93;36.04
33496;BME280;19836;55.812;37.560;2022-07-05T11:36:01;99383.09;;;31.62;36.51
33496;BME280;19836;55.812;37.560;2022-07-05T11:38:27;99383.28;;;31.61;36.62
33496;BME280;19836;55.812;37.560;2022-07-05T11:40:53;99385.19;;;31.60;36.53
33496;BME280;19836;55.812;37.560;2022-07-05T11:43:29;99387.63;;;31.78;36.47
33496;BME280;19836;55.812;37.560;2022-07-05T11:45:58;99389.88;;;32.11;36.25
33496;BME280;19836;55.812;37.560;2022-07-05T11:48:25;99390.22;;;33.58;35.10
33496;BME280;19836;55.812;37.560;2022-07-05T11:50:51;99394.41;;;35.05;33.41
33496;BME280;19836;55.812;37.560;2022-07-05T11:53:29;99382.78;;;36.64;31.40
33496;BME280;19836;55.812;37.560;2022-07-05T11:55:59;99386.88;;;38.05;29.70
33496;BME280;19836;55.812;37.560;2022-07-05T11:58:31;99386.59;;;38.55;28.81
33496;BME280;19836;55.812;37.560;2022-07-05T12:00:57;99388.63;;;37.75;29.18
33496;BME280;19836;55.812;37.560;2022-07-05T12:03:23;99387.34;;;36.52;30.12
33496;BME280;19836;55.812;37.560;2022-07-05T12:05:48;99380.06;;;35.21;31.68
33496;BME280;19836;55.812;37.560;2022-07-05T12:08:24;99374.38;;;34.07;32.82
33496;BME280;19836;55.812;37.560;2022-07-05T12:10:50;99374.22;;;33.18;33.69
33496;BME280;19836;55.812;37.560;2022-07-05T12:13:45;99373.75;;;32.44;34.67
33496;BME280;19836;55.812;37.560;2022-07-05T12:16:11;99372.00;;;31.85;35.49
33496;BME280;19836;55.812;37.560;2022-07-05T12:18:53;99372.81;;;31.34;36.17
33496;BME280;19836;55.812;37.560;2022-07-05T12:21:20;99371.41;;;30.84;36.71
33496;BME280;19836;55.812;37.560;2022-07-05T12:23:47;99383.69;;;30.51;37.35
33496;BME280;19836;55.812;37.560;2022-07-05T12:26:13;99387.97;;;30.23;37.78
33496;BME280;19836;55.812;37.560;2022-07-05T12:28:40;99392.16;;;30.03;38.29
33496;BME280;19836;55.812;37.560;2022-07-05T12:31:16;99395.97;;;29.86;38.53
33496;BME280;19836;55.812;37.560;2022-07-05T12:33:42;99400.88;;;29.68;38.97
33496;BME280;19836;55.812;37.560;2022-07-05T12:36:18;99413.63;;;29.53;38.99
33496;BME280;19836;55.812;37.560;2022-07-05T12:38:44;99430.56;;;29.42;39.26
33496;BME280;19836;55.812;37.560;2022-07-05T12:41:10;99450.03;;;29.25;39.60
33496;BME280;19836;55.812;37.560;2022-07-05T12:43:49;99457.97;;;28.62;41.41
33496;BME280;19836;55.812;37.560;2022-07-05T12:46:15;99467.53;;;27.91;43.55
33496;BME280;19836;55.812;37.560;2022-07-05T12:48:41;99482.38;;;27.20;45.89
33496;BME280;19836;55.812;37.560;2022-07-05T12:51:07;99473.53;;;26.45;48.72
33496;BME280;19836;55.812;37.560;2022-07-05T12:53:33;99478.97;;;25.91;51.17
33496;BME280;19836;55.812;37.560;2022-07-05T12:56:22;99488.81;;;25.56;53.19
33496;BME280;19836;55.812;37.560;2022-07-05T12:59:07;99512.91;;;25.14;57.27
33496;BME280;19836;55.812;37.560;2022-07-05T13:01:42;99512.88;;;24.46;60.56
33496;BME280;19836;55.812;37.560;2022-07-05T13:04:13;99512.44;;;24.11;62.42
33496;BME280;19836;55.812;37.560;2022-07-05T13:06:46;99507.59;;;23.83;63.50
33496;BME280;19836;55.812;37.560;2022-07-05T13:09:14;99507.69;;;23.52;65.31